Time;durP1;ratioP1;P1;durP2;ratioP2;P2;SDS_P1;SDS_P2;PMS_P1;PMS_P2;Temp;Humidity;BMP_temperature;BMP_pressure;BME280_temperature;BME280_humidity;BME280_pressure;Samples;Min_cycle;Max_cycle;Signal;HPM_P1;HPM_P2
2023/11/08 00:00:46;;;;;;;149.65;23.83;;;;;;;14.50;100.00;102948.09;5050349;28;20186;-75
2023/11/08 00:03:14;;;;;;;105.80;24.00;;;;;;;14.93;100.00;103019.16;5050059;28;20029;-76
2023/11/08 00:05:41;;;;;;;104.45;23.58;;;;;;;15.01;100.00;103031.97;5050436;28;20439;-76
2023/11/08 00:08:07;;;;;;;144.27;24.77;;;;;;;15.14;100.00;103074.72;5050407;28;20036;-75
2023/11/08 00:10:34;;;;;;;78.10;23.65;;;;;;;14.44;100.00;102987.34;5049960;28;20036;-76
2023/11/08 00:12:59;;;;;;;41.03;21.70;;;;;;;14.93;100.00;103065.25;5049864;28;20029;-75
2023/11/08 00:15:26;;;;;;;89.88;23.67;;;;;;;14.69;100.00;103063.47;5049871;28;20033;-75
2023/11/08 00:17:52;;;;;;;85.53;23.00;;;;;;;15.08;100.00;103111.44;5032543;28;20035;-75
2023/11/08 00:20:17;;;;;;;183.10;25.05;;;;;;;14.69;100.00;103042.09;5049733;28;20024;-76
2023/11/08 00:22:44;;;;;;;186.23;26.48;;;;;;;15.08;100.00;103105.44;5049710;28;20400;-75
2023/11/08 00:25:10;;;;;;;255.07;26.75;;;;;;;14.71;100.00;103053.22;5050176;28;20029;-76
2023/11/08 00:27:36;;;;;;;179.13;24.67;;;;;;;15.15;100.00;103105.47;5049570;28;20086;-75
2023/11/08 00:30:02;;;;;;;176.38;23.48;;;;;;;14.71;100.00;102963.56;5049742;28;20029;-76
2023/11/08 00:32:28;;;;;;;57.10;19.85;;;;;;;14.60;100.00;102919.97;5049739;28;20057;-76
2023/11/08 00:34:53;;;;;;;68.53;19.98;;;;;;;14.73;100.00;102952.47;5050061;28;20480;-75
2023/11/08 00:37:18;;;;;;;157.13;24.08;;;;;;;15.12;100.00;103023.47;5049512;28;20051;-75
2023/11/08 00:39:44;;;;;;;174.43;25.65;;;;;;;15.14;100.00;103055.06;5030581;28;20033;-75
2023/11/08 00:42:09;;;;;;;275.90;28.13;;;;;;;15.00;100.00;103035.38;5049371;28;20095;-75
2023/11/08 00:44:35;;;;;;;117.72;22.17;;;;;;;14.67;100.00;102925.97;5030752;28;20057;-73
2023/11/08 00:47:00;;;;;;;154.50;24.33;;;;;;;14.82;100.00;102953.31;5048759;28;20115;-74
2023/11/08 00:49:27;;;;;;;96.30;23.73;;;;;;;15.17;100.00;102967.91;5048488;28;20044;-76
2023/11/08 00:51:53;;;;;;;178.20;24.38;;;;;;;15.11;100.00;103006.38;5031827;28;20040;-75
2023/11/08 00:54:18;;;;;;;71.53;21.77;;;;;;;15.06;100.00;103008.06;5031030;28;20095;-75
2023/11/08 00:56:43;;;;;;;120.13;22.83;;;;;;;15.07;100.00;103014.91;5048306;28;20041;-74
2023/11/08 00:59:09;;;;;;;86.05;21.63;;;;;;;14.61;100.00;102992.53;5048960;28;20020;-75
2023/11/08 01:01:37;;;;;;;96.85;20.60;;;;;;;14.58;100.00;102998.50;5048202;28;20040;-74
2023/11/08 01:04:06;;;;;;;62.92;21.75;;;;;;;15.01;100.00;103083.22;5028393;28;20036;-74
2023/11/08 01:06:32;;;;;;;55.00;21.52;;;;;;;14.94;100.00;103160.91;5048303;28;20052;-75
2023/11/08 01:08:58;;;;;;;103.85;24.63;;;;;;;14.37;100.00;103140.91;5048566;28;20029;-75
2023/11/08 01:11:23;;;;;;;114.97;23.42;;;;;;;14.51;100.00;103067.63;5048633;28;20040;-75
2023/11/08 01:13:49;;;;;;;96.80;23.15;;;;;;;14.78;100.00;103067.75;5048565;28;20051;-74
2023/11/08 01:16:14;;;;;;;67.45;22.73;;;;;;;14.81;100.00;103080.59;5048269;28;20112;-75
2023/11/08 01:18:40;;;;;;;104.28;23.13;;;;;;;15.05;100.00;103196.03;5048206;28;20028;-75
2023/11/08 01:21:05;;;;;;;78.00;21.90;;;;;;;14.91;100.00;103256.56;5048513;28;20033;-75
2023/11/08 01:23:31;;;;;;;95.13;22.08;;;;;;;14.56;100.00;103229.81;5048217;28;20483;-78
2023/11/08 01:25:57;;;;;;;134.73;22.08;;;;;;;15.00;100.00;103299.31;5030102;28;20044;-72
2023/11/08 01:28:22;;;;;;;41.03;20.20;;;;;;;14.77;100.00;103276.09;5048152;28;20427;-76
2023/11/08 01:30:48;;;;;;;147.85;24.25;;;;;;;15.04;100.00;103362.56;5048668;28;20025;-75
2023/11/08 01:33:14;;;;;;;71.18;21.25;;;;;;;15.03;100.00;103361.75;5048502;28;20039;-75
2023/11/08 01:35:39;;;;;;;63.53;20.70;;;;;;;15.00;100.00;103418.09;5048269;28;20025;-75
2023/11/08 01:38:05;;;;;;;80.28;22.23;;;;;;;15.00;100.00;103492.41;5048360;28;20037;-75
2023/11/08 01:40:30;;;;;;;142.52;23.85;;;;;;;14.99;100.00;103398.44;5048173;28;20384;-76
2023/11/08 01:42:55;;;;;;;88.55;21.00;;;;;;;14.63;100.00;103359.66;5030224;28;20032;-76
2023/11/08 01:45:21;;;;;;;118.22;22.63;;;;;;;14.52;100.00;103384.28;5048080;28;20029;-76
2023/11/08 01:47:48;;;;;;;94.22;23.25;;;;;;;15.07;100.00;103539.47;5048895;28;20094;-73
2023/11/08 01:50:15;;;;;;;89.85;21.80;;;;;;;15.01;100.00;103632.56;5048331;28;20029;-74
2023/11/08 01:52:41;;;;;;;78.05;20.25;;;;;;;14.63;100.00;103608.13;5047510;28;20037;-75
2023/11/08 01:55:07;;;;;;;63.38;18.52;;;;;;;15.02;100.00;103743.59;5048187;28;20025;-76
2023/11/08 01:57:33;;;;;;;92.50;18.85;;;;;;;14.78;100.00;103744.09;5029815;28;20474;-75
2023/11/08 01:59:58;;;;;;;64.50;18.13;;;;;;;14.52;100.00;103740.25;5047891;28;20035;-74
2023/11/08 02:02:24;;;;;;;65.05;18.33;;;;;;;15.15;100.00;103961.72;5029736;28;20033;-75
2023/11/08 02:04:52;;;;;;;114.82;18.27;;;;;;;14.62;100.00;103912.06;5047950;28;20143;-76
2023/11/08 02:07:17;;;;;;;62.50;16.08;;;;;;;14.98;100.00;104036.59;5047786;28;20119;-76
2023/11/08 02:09:43;;;;;;;72.75;16.92;;;;;;;14.83;100.00;104065.38;5046819;28;20029;-75
2023/11/08 02:12:09;;;;;;;69.38;16.52;;;;;;;14.99;100.00;104108.41;5048654;28;20143;-75
2023/11/08 02:14:35;;;;;;;60.22;15.90;;;;;;;14.67;100.00;104068.44;5047801;28;20025;-75
2023/11/08 02:17:01;;;;;;;48.15;14.82;;;;;;;14.99;100.00;104117.81;5048055;28;20044;-77
2023/11/08 02:19:26;;;;;;;60.47;15.13;;;;;;;14.93;100.00;104115.97;5047828;28;20384;-75
2023/11/08 02:21:52;;;;;;;48.05;15.07;;;;;;;14.58;100.00;104093.84;5048320;28;20056;-76
2023/11/08 02:24:21;;;;;;;83.00;15.65;;;;;;;14.83;100.00;104110.63;5047808;28;20071;-76
2023/11/08 02:26:48;;;;;;;74.25;14.80;;;;;;;14.70;100.00;104089.88;5048071;28;20040;-75
2023/11/08 02:29:15;;;;;;;58.17;14.10;;;;;;;14.38;100.00;104141.22;5046588;28;20025;-75
2023/11/08 02:31:40;;;;;;;46.47;14.07;;;;;;;14.96;100.00;104300.59;5047767;28;20033;-74
2023/11/08 02:34:09;;;;;;;54.60;13.65;;;;;;;14.52;100.00;104357.53;5030345;28;20037;-76
2023/11/08 02:36:35;;;;;;;83.78;15.07;;;;;;;14.66;100.00;104380.16;5030461;28;20041;-74
2023/11/08 02:39:00;;;;;;;61.33;14.18;;;;;;;14.53;100.00;104349.03;5047263;28;20040;-76
2023/11/08 02:41:26;;;;;;;45.83;14.60;;;;;;;14.82;100.00;104449.72;5047624;28;20033;-75
2023/11/08 02:43:51;;;;;;;39.17;14.32;;;;;;;14.34;100.00;104419.38;5047412;28;21745;-75
2023/11/08 02:46:17;;;;;;;30.17;13.32;;;;;;;14.98;100.00;104591.19;5047186;28;20029;-74
2023/11/08 02:48:42;;;;;;;25.30;13.65;;;;;;;15.01;100.00;104710.91;5045147;28;20040;-76
2023/11/08 02:51:08;;;;;;;38.22;13.18;;;;;;;14.50;100.00;104787.88;5046955;28;20060;-75
2023/11/08 02:53:34;;;;;;;54.17;13.90;;;;;;;14.42;100.00;104832.00;5047332;28;20123;-74
2023/11/08 02:55:59;;;;;;;32.55;13.88;;;;;;;14.56;100.00;104908.50;5029912;28;20033;-75
2023/11/08 02:58:24;;;;;;;34.63;14.15;;;;;;;14.54;100.00;104955.38;5047149;28;20128;-76
2023/11/08 03:00:54;;;;;;;43.20;14.43;;;;;;;14.88;100.00;104986.50;5029220;28;20536;-72
2023/11/08 03:03:20;;;;;;;32.47;14.90;;;;;;;14.65;100.00;104911.41;5029598;28;20032;-75
2023/11/08 03:05:45;;;;;;;46.08;15.23;;;;;;;14.54;100.00;104886.19;5046962;28;20052;-76
2023/11/08 03:08:11;;;;;;;43.90;14.90;;;;;;;14.93;100.00;105032.81;5029297;28;20491;-76
2023/11/08 03:10:36;;;;;;;37.88;15.85;;;;;;;14.81;100.00;105040.94;5029456;28;20032;-74
2023/11/08 03:13:04;;;;;;;48.45;16.60;;;;;;;14.65;100.00;105007.88;5047680;28;20025;-76
2023/11/08 03:15:29;;;;;;;117.90;18.05;;;;;;;14.60;100.00;105010.28;5029093;28;20469;-75
2023/11/08 03:17:55;;;;;;;75.25;17.15;;;;;;;14.68;100.00;104938.78;5047376;28;20021;-76
2023/11/08 03:20:20;;;;;;;65.18;18.30;;;;;;;14.94;100.00;104886.72;5047403;28;20503;-77
2023/11/08 03:22:46;;;;;;;34.55;16.83;;;;;;;14.73;100.00;104824.50;5045235;28;20033;-75
2023/11/08 03:25:13;;;;;;;55.33;19.02;;;;;;;15.11;100.00;104918.94;5029535;28;20059;-75
2023/11/08 03:27:41;;;;;;;68.95;19.85;;;;;;;14.75;100.00;104884.38;5050064;28;20029;-75
2023/11/08 03:30:15;;;;;;;63.45;20.08;;;;;;;14.34;100.00;104643.91;5032207;28;20029;-73
2023/11/08 03:32:40;;;;;;;55.28;19.50;;;;;;;14.59;100.00;104664.31;5051211;28;20037;-75
2023/11/08 03:35:06;;;;;;;160.65;22.92;;;;;;;14.42;100.00;104620.25;5050596;28;20032;-74
2023/11/08 03:37:39;;;;;;;115.55;21.67;;;;;;;14.44;100.00;104559.69;5049940;28;20033;-75
2023/11/08 03:40:11;;;;;;;59.40;19.35;;;;;;;14.55;100.00;104526.72;5032460;28;20071;-75
2023/11/08 03:42:37;;;;;;;79.55;21.73;;;;;;;14.86;100.00;104605.31;5051371;28;20097;-74
2023/11/08 03:45:04;;;;;;;61.17;20.38;;;;;;;14.78;100.00;104728.13;5050493;28;20028;-77
2023/11/08 03:47:30;;;;;;;35.25;17.67;;;;;;;14.28;100.00;104743.56;5049984;28;20029;-77
2023/11/08 03:49:56;;;;;;;34.85;17.85;;;;;;;14.57;100.00;104958.94;5050665;28;20033;-76
2023/11/08 03:52:23;;;;;;;38.67;19.08;;;;;;;14.53;100.00;105079.19;5051077;28;20412;-76
2023/11/08 03:54:49;;;;;;;46.65;21.77;;;;;;;14.43;100.00;105103.56;5050494;28;20029;-76
2023/11/08 03:57:15;;;;;;;47.33;21.92;;;;;;;13.99;100.00;105066.75;5050471;28;20488;-75
2023/11/08 03:59:40;;;;;;;43.08;21.35;;;;;;;14.31;100.00;105163.69;5050527;28;20020;-75
2023/11/08 04:02:05;;;;;;;46.35;22.00;;;;;;;14.74;100.00;105361.91;5050169;28;20517;-76
2023/11/08 04:04:31;;;;;;;56.28;22.40;;;;;;;14.52;100.00;105351.56;5051050;28;20472;-76
2023/11/08 04:06:56;;;;;;;45.10;22.30;;;;;;;14.82;100.00;105445.16;5051112;28;20104;-75
2023/11/08 04:09:22;;;;;;;52.88;22.15;;;;;;;14.66;100.00;105458.09;5051493;28;20032;-75
2023/11/08 04:11:47;;;;;;;55.80;23.25;;;;;;;14.45;100.00;105422.19;5049734;28;20040;-75
2023/11/08 04:14:13;;;;;;;47.53;23.15;;;;;;;14.27;100.00;105405.97;5049936;28;20060;-75
2023/11/08 04:16:39;;;;;;;41.80;21.50;;;;;;;14.41;100.00;105450.16;5050021;28;20025;-76
2023/11/08 04:19:06;;;;;;;42.22;20.88;;;;;;;14.39;100.00;105444.09;5050560;28;20043;-76
2023/11/08 04:21:31;;;;;;;73.40;20.70;;;;;;;14.27;100.00;105428.16;5049384;28;20095;-75
2023/11/08 04:23:57;;;;;;;47.65;17.10;;;;;;;14.61;100.00;105467.31;5048281;28;20037;-77
2023/11/08 04:26:22;;;;;;;72.00;15.77;;;;;;;14.48;100.00;105427.44;5049497;28;20122;-76
2023/11/08 04:28:48;;;;;;;41.45;15.05;;;;;;;14.46;100.00;105395.75;5049557;28;20032;-75
2023/11/08 04:31:13;;;;;;;63.30;15.35;;;;;;;14.14;100.00;105319.19;5049874;28;20040;-76
2023/11/08 04:33:39;;;;;;;69.35;17.15;;;;;;;13.91;100.00;105212.34;5031012;28;20072;-77
2023/11/08 04:36:08;;;;;;;84.55;16.92;;;;;;;14.12;100.00;105203.03;5047212;28;20029;-74
2023/11/08 04:38:33;;;;;;;41.15;16.17;;;;;;;14.40;100.00;105280.19;5049312;28;20025;-75
2023/11/08 04:40:59;;;;;;;38.88;16.73;;;;;;;14.15;100.00;105244.09;5048879;28;20032;-79
2023/11/08 04:43:24;;;;;;;64.57;16.35;;;;;;;14.17;100.00;105257.84;5048980;28;20040;-74
2023/11/08 04:45:50;;;;;;;50.83;17.00;;;;;;;13.98;100.00;105214.38;5048377;28;20037;-75
2023/11/08 04:48:15;;;;;;;69.80;18.05;;;;;;;14.10;100.00;105249.84;5048073;28;20036;-74
2023/11/08 04:50:40;;;;;;;117.53;19.75;;;;;;;14.34;100.00;105282.50;5047589;28;20052;-79
2023/11/08 04:53:06;;;;;;;69.82;18.75;;;;;;;14.74;100.00;105380.75;5047973;28;20032;-74
2023/11/08 04:55:31;;;;;;;167.32;21.80;;;;;;;14.12;100.00;105268.72;5047736;28;20047;-73
2023/11/08 04:57:57;;;;;;;269.80;23.45;;;;;;;14.28;100.00;105245.53;5047661;28;20237;-74
2023/11/08 05:00:22;;;;;;;162.75;19.73;;;;;;;14.35;100.00;105234.72;5047494;28;20091;-74
2023/11/08 05:02:48;;;;;;;215.73;19.25;;;;;;;13.88;100.00;105081.69;5047431;28;20035;-74
2023/11/08 05:05:15;;;;;;;72.75;16.58;;;;;;;14.52;100.00;105216.66;5046607;28;20092;-73
2023/11/08 05:07:42;;;;;;;121.72;16.63;;;;;;;14.51;100.00;105191.88;5047798;28;20044;-73
2023/11/08 05:10:09;;;;;;;50.63;15.57;;;;;;;14.07;100.00;105083.28;5046982;28;20488;-74
2023/11/08 05:12:35;;;;;;;59.92;14.45;;;;;;;14.31;100.00;105086.84;5047821;28;20029;-73
2023/11/08 05:15:01;;;;;;;109.90;16.02;;;;;;;14.51;100.00;105140.63;5047411;28;20111;-74
2023/11/08 05:17:27;;;;;;;152.93;13.32;;;;;;;14.42;100.00;105132.56;5029693;28;20041;-76
2023/11/08 05:19:52;;;;;;;27.02;12.20;;;;;;;15.03;100.00;105312.72;5030170;28;20033;-74
2023/11/08 05:22:18;;;;;;;72.20;12.63;;;;;;;13.82;100.00;105073.75;5047093;28;20548;-74
2023/11/08 05:24:43;;;;;;;97.47;14.63;;;;;;;14.19;100.00;105061.59;5047385;28;20472;-73
2023/11/08 05:27:11;;;;;;;46.28;12.90;;;;;;;13.59;100.00;104867.25;5047712;28;20092;-75
2023/11/08 05:29:36;;;;;;;39.15;12.65;;;;;;;14.39;100.00;104983.88;5047679;28;20085;-74
2023/11/08 05:32:02;;;;;;;61.30;13.38;;;;;;;14.20;100.00;104990.78;5047140;28;20433;-75
2023/11/08 05:34:27;;;;;;;124.00;16.80;;;;;;;14.21;100.00;105003.66;5046811;28;20044;-76
2023/11/08 05:36:53;;;;;;;75.20;13.85;;;;;;;14.29;100.00;104996.28;5047197;28;20044;-71
2023/11/08 05:39:22;;;;;;;92.78;13.85;;;;;;;14.31;100.00;105049.31;5028700;28;20407;-75
2023/11/08 05:41:53;;;;;;;66.18;15.05;;;;;;;14.46;100.00;105128.44;5047424;28;20037;-73
2023/11/08 05:44:19;;;;;;;48.58;15.75;;;;;;;14.42;100.00;105204.28;5045882;28;20099;-73
2023/11/08 05:46:45;;;;;;;61.75;15.05;;;;;;;14.43;100.00;105340.94;5047850;28;20041;-71
2023/11/08 05:49:10;;;;;;;63.25;14.98;;;;;;;14.32;100.00;105375.50;5046193;28;20029;-72
2023/11/08 05:51:37;;;;;;;69.00;14.40;;;;;;;14.06;100.00;105297.50;5046670;28;20466;-72
2023/11/08 05:54:03;;;;;;;24.23;13.77;;;;;;;14.17;100.00;105303.94;5047007;28;20029;-73
2023/11/08 05:56:29;;;;;;;41.47;17.33;;;;;;;14.30;100.00;105284.91;5047300;28;20032;-72
2023/11/08 05:58:55;;;;;;;31.65;16.17;;;;;;;14.59;100.00;105275.03;5045994;28;20111;-73
2023/11/08 06:01:20;;;;;;;59.50;21.88;;;;;;;14.27;100.00;105252.31;5029482;28;20056;-72
2023/11/08 06:03:46;;;;;;;69.43;20.15;;;;;;;14.07;100.00;105245.47;5046792;28;20033;-73
2023/11/08 06:06:12;;;;;;;86.28;18.73;;;;;;;14.14;100.00;105195.41;5046729;28;20443;-73
2023/11/08 06:08:39;;;;;;;46.15;18.75;;;;;;;13.89;100.00;105127.81;5029827;28;20041;-73
2023/11/08 06:11:05;;;;;;;40.92;18.50;;;;;;;14.29;100.00;105188.34;5029365;28;20033;-74
2023/11/08 06:13:35;;;;;;;70.57;22.83;;;;;;;14.05;100.00;105154.03;5046948;28;20036;-73
2023/11/08 06:16:00;;;;;;;54.20;22.80;;;;;;;14.07;100.00;105152.41;5046934;28;20570;-73
2023/11/08 06:18:26;;;;;;;56.65;21.38;;;;;;;14.13;100.00;105276.44;5046870;28;20036;-73
2023/11/08 06:20:55;;;;;;;46.90;20.90;;;;;;;14.15;100.00;105363.56;5046998;28;20021;-73
2023/11/08 06:23:20;;;;;;;81.30;21.05;;;;;;;14.34;100.00;105379.00;5046646;28;20029;-73
2023/11/08 06:25:46;;;;;;;61.60;21.05;;;;;;;14.51;100.00;105366.09;5046505;28;20485;-72
2023/11/08 06:28:11;;;;;;;139.55;26.40;;;;;;;14.51;100.00;105426.69;5028667;28;20068;-73
2023/11/08 06:30:37;;;;;;;78.65;22.77;;;;;;;14.03;100.00;105406.56;5028948;28;20127;-72
2023/11/08 06:33:02;;;;;;;69.40;23.67;;;;;;;14.26;100.00;105335.06;5046696;28;20029;-73
2023/11/08 06:35:28;;;;;;;74.97;22.70;;;;;;;14.30;100.00;105259.28;5046660;28;20051;-73
2023/11/08 06:37:53;;;;;;;104.05;22.75;;;;;;;13.85;100.00;105146.41;5046360;28;20491;-73
2023/11/08 06:40:19;;;;;;;178.65;24.80;;;;;;;13.78;100.00;105179.38;5045892;28;20521;-71
2023/11/08 06:42:45;;;;;;;142.60;22.58;;;;;;;13.65;100.00;105093.53;5046470;28;20091;-73
2023/11/08 06:45:10;;;;;;;93.20;23.85;;;;;;;13.47;100.00;105064.59;5046563;28;20029;-73
2023/11/08 06:47:36;;;;;;;83.18;27.52;;;;;;;13.96;100.00;105146.00;5045668;28;20040;-73
2023/11/08 06:50:02;;;;;;;91.05;28.45;;;;;;;13.51;100.00;105137.25;5046409;28;20032;-73
2023/11/08 06:52:27;;;;;;;62.63;31.65;;;;;;;13.94;100.00;105331.09;5027667;28;20071;-73
2023/11/08 06:54:53;;;;;;;60.53;31.75;;;;;;;14.14;100.00;105528.28;5045654;28;20476;-72
2023/11/08 06:57:18;;;;;;;68.22;32.25;;;;;;;13.44;100.00;105453.28;5046406;28;20132;-73
2023/11/08 06:59:44;;;;;;;62.67;32.65;;;;;;;13.81;100.00;105578.75;5047507;28;20033;-74
2023/11/08 07:02:09;;;;;;;62.13;33.13;;;;;;;13.77;100.00;105587.06;5032527;28;20090;-73
2023/11/08 07:04:35;;;;;;;62.75;34.50;;;;;;;13.38;100.00;105483.66;5049599;28;20048;-73
2023/11/08 07:07:04;;;;;;;58.38;33.45;;;;;;;14.58;100.00;105762.75;5050010;28;20037;-73
2023/11/08 07:09:30;;;;;;;61.22;33.85;;;;;;;14.68;100.00;105858.91;5032414;28;20029;-73
2023/11/08 07:11:57;;;;;;;57.55;34.33;;;;;;;14.68;100.00;105889.66;5050229;28;20031;-73
2023/11/08 07:14:23;;;;;;;67.22;34.13;;;;;;;14.80;100.00;105939.00;5032242;28;20037;-71
2023/11/08 07:16:48;;;;;;;58.80;36.25;;;;;;;14.90;100.00;106025.84;5048497;28;20502;-72
2023/11/08 07:19:14;;;;;;;62.83;35.60;;;;;;;15.13;100.00;106050.97;5049530;28;20025;-71
2023/11/08 07:21:39;;;;;;;64.50;37.50;;;;;;;15.22;100.00;105984.75;5049121;28;20473;-73
2023/11/08 07:24:08;;;;;;;62.17;37.58;;;;;;;15.91;100.00;106119.97;5049379;28;20025;-72
2023/11/08 07:26:34;;;;;;;61.15;36.05;;;;;;;15.39;100.00;105935.13;5049023;28;20033;-71
2023/11/08 07:29:03;;;;;;;66.45;38.05;;;;;;;15.77;100.00;105941.25;5049371;28;20033;-72
2023/11/08 07:31:32;;;;;;;58.25;35.90;;;;;;;16.22;100.00;105940.78;5049701;28;21843;-71
2023/11/08 07:33:57;;;;;;;57.15;35.20;;;;;;;16.24;100.00;105954.56;5048927;28;20029;-71
2023/11/08 07:36:24;;;;;;;53.60;33.08;;;;;;;16.02;100.00;105805.41;5049377;28;20408;-72
2023/11/08 07:38:50;;;;;;;53.95;33.17;;;;;;;15.67;100.00;105595.03;5031278;28;20418;-72
2023/11/08 07:41:16;;;;;;;63.88;34.05;;;;;;;16.03;100.00;105556.28;5048952;28;20037;-72
2023/11/08 07:43:42;;;;;;;53.33;31.95;;;;;;;15.58;100.00;105342.28;5048891;28;20597;-72
2023/11/08 07:46:08;;;;;;;48.45;32.90;;;;;;;15.80;100.00;105263.47;5049048;28;20060;-74
2023/11/08 07:48:34;;;;;;;53.28;33.15;;;;;;;16.16;100.00;105242.50;5031677;28;20025;-72
2023/11/08 07:51:00;;;;;;;51.67;31.67;;;;;;;16.70;100.00;105204.03;5048647;28;20091;-73
2023/11/08 07:53:26;;;;;;;45.55;30.95;;;;;;;16.50;100.00;105079.16;5049073;28;20029;-73
2023/11/08 07:55:52;;;;;;;52.42;31.10;;;;;;;16.61;100.00;104962.06;5047402;28;20392;-74
2023/11/08 07:58:17;;;;;;;50.40;32.83;;;;;;;16.99;100.00;104933.09;5031314;28;20036;-73
2023/11/08 08:00:45;;;;;;;46.03;30.88;;;;;;;16.54;100.00;104713.41;5049240;28;20468;-73
2023/11/08 08:03:13;;;;;;;46.10;30.45;;;;;;;16.61;100.00;104620.19;5031950;28;20036;-74
2023/11/08 08:05:40;;;;;;;45.85;30.73;;;;;;;16.73;100.00;104531.34;5046710;28;20094;-72
2023/11/08 08:08:05;;;;;;;47.08;29.23;;;;;;;16.84;100.00;104426.09;5049162;28;20510;-73
2023/11/08 08:10:33;;;;;;;41.90;27.63;;;;;;;16.84;100.00;104324.13;5031218;28;20021;-71
2023/11/08 08:13:00;;;;;;;44.40;28.80;;;;;;;16.99;100.00;104246.34;5047621;28;20521;-70
2023/11/08 08:15:25;;;;;;;44.72;28.05;;;;;;;16.82;100.00;104139.81;5048735;28;20463;-71
2023/11/08 08:17:51;;;;;;;41.83;27.88;;;;;;;16.93;100.00;104085.13;5047955;28;20049;-71
2023/11/08 08:20:17;;;;;;;46.47;28.13;;;;;;;16.71;100.00;103951.16;5048656;28;20036;-72
2023/11/08 08:22:44;;;;;;;48.00;30.23;;;;;;;16.25;100.00;103827.31;5048552;28;20035;-71
2023/11/08 08:25:11;;;;;;;50.28;29.85;;;;;;;16.88;100.00;103852.78;5046751;28;20038;-71
2023/11/08 08:27:39;;;;;;;44.63;30.17;;;;;;;16.76;100.00;103743.84;5030565;28;20044;-72
2023/11/08 08:30:14;;;;;;;52.45;33.17;;;;;;;16.52;100.00;103630.63;5048770;28;20035;-72
2023/11/08 08:32:45;;;;;;;54.08;32.47;;;;;;;16.41;100.00;103553.47;5048795;28;20106;-72
2023/11/08 08:35:11;;;;;;;52.55;33.28;;;;;;;16.92;100.00;103574.28;5047173;28;20029;-71
2023/11/08 08:37:37;;;;;;;48.50;33.95;;;;;;;16.60;100.00;103470.50;5048290;28;20040;-71
2023/11/08 08:40:10;;;;;;;48.42;30.85;;;;;;;16.71;100.00;103470.53;5046968;28;20877;-73
2023/11/08 08:42:39;;;;;;;46.97;31.20;;;;;;;17.01;100.00;103479.19;5047775;28;20502;-72
2023/11/08 08:45:06;;;;;;;46.40;31.92;;;;;;;16.82;100.00;103428.56;5043313;28;20029;-71
2023/11/08 08:47:31;;;;;;;47.13;29.40;;;;;;;16.36;100.00;103347.09;5030178;28;20553;-72
2023/11/08 08:49:58;;;;;;;45.30;27.92;;;;;;;16.79;100.00;103366.03;5030630;28;20077;-72
2023/11/08 08:52:25;;;;;;;44.88;28.45;;;;;;;17.08;100.00;103380.63;5046596;28;20040;-70
2023/11/08 08:54:50;;;;;;;42.95;28.65;;;;;;;17.08;100.00;103352.31;5047914;28;20037;-71
2023/11/08 08:57:16;;;;;;;44.40;27.17;;;;;;;16.82;100.00;103268.34;5029524;28;20033;-72
2023/11/08 08:59:41;;;;;;;47.15;26.38;;;;;;;17.19;100.00;103304.28;5047610;28;20442;-71
2023/11/08 09:02:07;;;;;;;49.40;27.80;;;;;;;17.29;100.00;103287.97;5047611;28;20126;-72
2023/11/08 09:04:33;;;;;;;48.15;26.02;;;;;;;16.90;100.00;103182.66;5047201;28;20049;-71
2023/11/08 09:07:00;;;;;;;46.08;27.52;;;;;;;17.03;100.00;103166.34;5029937;28;20385;-71
2023/11/08 09:09:25;;;;;;;43.97;25.60;;;;;;;17.18;100.00;103199.72;5029434;28;20024;-71
2023/11/08 09:11:51;;;;;;;43.72;25.30;;;;;;;17.17;100.00;103174.03;5047300;28;20040;-71
2023/11/08 09:14:18;;;;;;;43.28;27.40;;;;;;;16.94;100.00;103106.38;5047197;28;20075;-71
2023/11/08 09:16:44;;;;;;;50.05;27.67;;;;;;;16.72;100.00;103074.75;5047385;28;20040;-72
2023/11/08 09:19:09;;;;;;;51.58;29.38;;;;;;;16.60;100.00;103043.97;5047413;28;20071;-71
2023/11/08 09:21:35;;;;;;;54.35;29.42;;;;;;;16.43;100.00;102978.91;5046994;28;20036;-71
2023/11/08 09:24:02;;;;;;;61.83;30.48;;;;;;;17.35;100.00;103089.88;5046178;28;20609;-71
2023/11/08 09:26:28;;;;;;;54.00;28.63;;;;;;;16.80;100.00;103003.63;5047087;28;20025;-69
2023/11/08 09:28:54;;;;;;;54.35;29.10;;;;;;;16.40;100.00;102927.59;5047461;28;20040;-71
2023/11/08 09:31:19;;;;;;;55.53;29.90;;;;;;;17.09;100.00;103021.47;5047311;28;20025;-71
2023/11/08 09:33:45;;;;;;;57.78;30.05;;;;;;;17.18;100.00;103009.41;5046598;28;20033;-71
2023/11/08 09:36:12;;;;;;;60.75;30.17;;;;;;;17.17;100.00;103004.28;5047435;28;20121;-71
2023/11/08 09:38:37;;;;;;;53.13;29.25;;;;;;;17.28;100.00;102948.47;5047012;28;20029;-69
2023/11/08 09:41:03;;;;;;;57.67;29.83;;;;;;;17.63;100.00;103007.41;5046939;28;20411;-71
2023/11/08 09:43:30;;;;;;;54.80;28.20;;;;;;;17.14;100.00;102932.28;5028642;28;20495;-71
2023/11/08 09:45:57;;;;;;;52.00;27.60;;;;;;;17.94;100.00;103006.25;5046638;28;20090;-72
2023/11/08 09:48:23;;;;;;;52.65;27.33;;;;;;;17.57;100.00;102940.56;5047204;28;20037;-72
2023/11/08 09:50:49;;;;;;;48.25;26.45;;;;;;;17.35;100.00;102916.69;5046127;28;20174;-72
2023/11/08 09:53:14;;;;;;;46.22;23.35;;;;;;;17.11;100.00;102940.88;5046733;28;20032;-71
2023/11/08 09:55:40;;;;;;;44.55;25.58;;;;;;;17.13;100.00;102913.41;5047490;28;20120;-71
2023/11/08 09:58:09;;;;;;;43.92;25.77;;;;;;;17.50;100.00;102928.59;5047015;28;20412;-71
2023/11/08 10:00:36;;;;;;;45.22;26.10;;;;;;;16.95;100.00;102867.31;5047058;28;20021;-73
2023/11/08 10:03:05;;;;;;;45.63;26.15;;;;;;;17.51;100.00;102912.31;5029167;28;20026;-70
2023/11/08 10:05:36;;;;;;;45.80;25.90;;;;;;;17.23;100.00;102858.47;5025524;28;20195;-73
2023/11/08 10:08:11;;;;;;;40.67;25.40;;;;;;;17.02;100.00;102822.69;5026711;28;20466;-73
2023/11/08 10:10:37;;;;;;;42.50;23.00;;;;;;;17.27;100.00;102839.56;5026542;28;20041;-72
2023/11/08 10:13:04;;;;;;;42.15;23.50;;;;;;;17.73;100.00;102906.03;5027200;28;20408;-71
2023/11/08 10:15:30;;;;;;;41.92;23.33;;;;;;;17.53;100.00;102859.09;5026927;28;20568;-70
2023/11/08 10:17:56;;;;;;;43.80;23.02;;;;;;;18.03;100.00;102913.44;5025320;28;20065;-72
2023/11/08 10:20:21;;;;;;;41.42;24.38;;;;;;;17.86;100.00;102887.03;5026749;28;20060;-74
2023/11/08 10:22:47;;;;;;;34.92;21.40;;;;;;;17.73;100.00;102883.75;5026954;28;20154;-71
2023/11/08 10:25:13;;;;;;;35.40;20.02;;;;;;;17.77;100.00;102858.81;5026637;28;20036;-76
2023/11/08 10:27:38;;;;;;;42.00;21.73;;;;;;;17.62;100.00;102825.53;5025086;28;20048;-72
2023/11/08 10:30:23;;;;;;;39.88;20.90;;;;;;;17.71;100.00;102816.00;5026715;28;20142;-72
2023/11/08 10:32:48;;;;;;;40.08;21.58;;;;;;;17.76;100.00;102813.38;5025397;28;20033;-74
2023/11/08 10:35:21;;;;;;;36.47;19.80;;;;;;;17.48;100.00;102796.50;5027234;28;20120;-74
2023/11/08 10:37:49;;;;;;;38.55;21.65;;;;;;;17.57;100.00;102784.41;5030613;28;20112;-75
2023/11/08 10:40:17;;;;;;;36.58;20.63;;;;;;;17.71;100.00;102818.56;5029690;28;20061;-72
2023/11/08 10:42:52;;;;;;;35.45;20.77;;;;;;;17.53;100.00;102817.94;5030855;28;20075;-71
2023/11/08 10:45:21;;;;;;;34.03;22.52;;;;;;;17.54;100.00;102763.03;5030408;28;20055;-71
2023/11/08 10:47:47;;;;;;;34.50;21.27;;;;;;;17.68;100.00;102763.69;5030301;28;20466;-73
2023/11/08 10:50:15;;;;;;;34.97;20.35;;;;;;;18.35;100.00;102816.00;5028965;28;20175;-76
2023/11/08 10:52:42;;;;;;;38.03;21.40;;;;;;;18.08;100.00;102754.59;5030691;28;20076;-72
2023/11/08 10:55:11;;;;;;;36.65;22.50;;;;;;;18.51;100.00;102796.03;5029453;28;20025;-73